Date,TemperatureHighF,TemperatureAvgF,TemperatureLowF,DewpointHighF,DewpointAvgF,DewpointLowF,HumidityHigh,HumidityAvg,HumidityLow,PressureMaxIn,PressureMinIn,WindSpeedMaxMPH,WindSpeedAvgMPH,GustSpeedMaxMPH,PrecipitationSumIn
2013-1-1,73.6,70.0,66.7,69.6,67.0,61.3,97,90,82,30.11,30.01,14,5,18,0.11
2013-1-2,73.8,70.8,68.7,69.7,68.0,66.0,95,91,85,30.08,29.96,16,4,17,0.62
2013-1-3,73.9,70.6,68.4,69.9,67.6,64.8,96,90,78,30.09,29.98,15,5,19,0.76
2013-1-4,75.0,72.4,69.4,68.3,66.6,64.4,91,82,78,30.14,30.03,21,7,28,0.12
2013-1-5,74.1,71.7,68.5,69.0,67.3,64.2,92,86,79,30.16,30.06,20,8,24,0.48
2013-1-6,76.8,73.2,71.4,69.0,67.1,65.4,87,81,76,30.14,30.09,17,8,23,0.03
2013-1-8,76.8,72.0,68.9,69.8,67.8,65.8,92,87,77,30.13,29.89,20,6,22,0.31
2013-1-9,77.2,72.7,69.1,70.2,68.3,66.4,93,86,78,30.00,29.89,16,5,21,0.54
2013-1-10,77.9,73.6,70.3,69.0,66.7,64.0,84,79,73,29.99,29.90,16,6,21,0.00
2013-1-11,77.8,72.4,67.8,68.9,66.7,64.9,95,83,72,29.96,29.84,11,4,15,0.03
2013-1-12,79.9,71.5,66.6,70.6,68.0,5.1,96,89,72,29.94,29.84,11,2,14,0.04
2013-1-13,84.6,73.5,65.1,71.9,67.5,63.6,96,82,59,29.95,29.86,12,3,13,0.00
2013-1-14,76.5,75.1,73.9,68.9,68.4,66.6,81,80,77,29.91,29.87,18,10,21,0.00
2013-1-17,65.1,64.2,62.8,61.9,61.4,60.2,92,90,88,29.89,29.87,12,2,12,0.00
2013-1-18,77.7,69.1,59.2,65.4,62.1,24.0,95,79,58,29.93,29.79,11,4,14,0.00
2013-1-19,77.2,71.7,69.3,63.9,61.0,56.5,78,69,53,30.02,29.88,16,7,18,0.00
2013-1-20,75.6,70.7,67.1,61.4,59.3,56.8,74,67,59,30.07,29.97,14,6,16,0.00
2013-1-21,71.6,69.7,69.4,64.0,60.3,59.6,80,72,71,30.12,30.05,7,5,10,0.00
2013-1-22,78.1,72.2,68.5,68.6,64.6,62.1,83,77,68,30.13,30.02,14,5,16,0.00
2013-1-23,74.1,70.7,68.2,68.1,65.6,60.3,94,84,71,30.21,29.98,15,5,15,0.53
2013-1-24,73.2,68.8,63.9,69.4,66.7,62.7,96,93,87,30.06,29.98,16,2,18,1.79
2013-1-25,65.8,65.2,63.9,64.9,64.3,62.8,97,97,96,30.04,29.99,3,0,4,0.00
2013-1-26,82.9,70.4,65.3,68.2,65.3,64.3,97,85,58,30.00,29.87,14,3,18,0.04
2013-1-27,77.5,72.6,65.3,68.7,66.2,63.8,95,81,70,29.99,29.81,21,6,26,1.94
2013-1-28,76.3,69.0,64.9,70.0,66.9,63.4,97,93,76,29.96,29.85,8,2,10,1.65
2013-1-29,79.2,70.1,65.3,70.5,66.7,64.1,97,89,70,30.00,29.88,7,2,9,0.01
2013-1-30,75.0,71.6,64.6,69.8,67.1,63.7,98,86,80,30.04,29.98,3,1,4,0.00
2013-1-31,75.0,75.0,75.0,68.4,68.4,68.4,80,80,80,30.04,30.04,1,1,1,0.00